Time;durP1;ratioP1;P1;durP2;ratioP2;P2;SDS_P1;SDS_P2;PMS_P1;PMS_P2;Temp;Humidity;BMP_temperature;BMP_pressure;BME280_temperature;BME280_humidity;BME280_pressure;Samples;Min_cycle;Max_cycle;Signal;HPM_P1;HPM_P2
2021/08/10 00:02:17;;;;;;;3.47;3.17;;;12.70;99.90;;;;;;5050499;28;20187;-77
2021/08/10 00:04:42;;;;;;;3.20;2.90;;;12.70;99.90;;;;;;5046069;28;20186;-77
2021/08/10 00:07:08;;;;;;;4.20;2.90;;;12.60;99.90;;;;;;5044321;28;20636;-77
2021/08/10 00:09:34;;;;;;;4.30;2.90;;;12.70;99.90;;;;;;5022820;28;20241;-77
2021/08/10 00:11:59;;;;;;;3.57;3.30;;;12.50;99.90;;;;;;5033751;28;20919;-77
2021/08/10 00:14:26;;;;;;;3.90;3.60;;;12.60;99.90;;;;;;5044596;28;20179;-77
2021/08/10 00:16:51;;;;;;;4.70;3.30;;;12.40;99.90;;;;;;5046506;28;20179;-77
2021/08/10 00:19:17;;;;;;;4.63;3.30;;;12.50;99.90;;;;;;5049570;28;20451;-77
2021/08/10 00:21:43;;;;;;;4.03;3.10;;;12.30;99.90;;;;;;5045761;28;20214;-77
2021/08/10 00:24:09;;;;;;;2.77;2.57;;;12.30;99.90;;;;;;5044735;28;20196;-76
2021/08/10 00:26:34;;;;;;;2.90;2.50;;;12.40;99.90;;;;;;5045726;28;20649;-77
2021/08/10 00:29:03;;;;;;;3.20;2.90;;;12.10;99.90;;;;;;5046174;28;20240;-77
2021/08/10 00:31:28;;;;;;;3.17;2.93;;;12.10;99.90;;;;;;5046046;28;20222;-77
2021/08/10 00:33:54;;;;;;;3.87;2.70;;;12.10;99.90;;;;;;5043688;28;20774;-77
2021/08/10 00:36:19;;;;;;;2.70;2.50;;;12.40;99.90;;;;;;5044287;28;20179;-77
2021/08/10 00:38:45;;;;;;;3.03;2.73;;;12.00;99.90;;;;;;5045396;28;20233;-77
2021/08/10 00:41:10;;;;;;;3.17;2.87;;;12.10;99.90;;;;;;5044544;28;20266;-76
2021/08/10 00:43:39;;;;;;;3.97;2.60;;;12.40;99.90;;;;;;5042231;28;20183;-76
2021/08/10 00:46:07;;;;;;;4.03;3.13;;;12.10;99.90;;;;;;5049299;28;20184;-76
2021/08/10 00:48:33;;;;;;;3.07;2.80;;;12.20;99.90;;;;;;5047546;28;20432;-76
2021/08/10 00:50:59;;;;;;;3.40;3.10;;;12.20;99.90;;;;;;5045163;28;20471;-76
2021/08/10 00:53:26;;;;;;;3.20;2.90;;;12.30;99.90;;;;;;5047304;28;20189;-76
2021/08/10 00:55:53;;;;;;;2.83;2.63;;;12.30;99.90;;;;;;5047276;28;20796;-78
2021/08/10 00:58:18;;;;;;;3.00;2.80;;;12.20;99.90;;;;;;5045534;28;20185;-78
2021/08/10 01:00:44;;;;;;;3.00;2.80;;;12.30;99.90;;;;;;5045001;28;20184;-76
2021/08/10 01:03:11;;;;;;;2.53;2.33;;;11.90;99.90;;;;;;5041771;28;20190;-76
2021/08/10 01:05:39;;;;;;;3.35;2.72;;;12.20;99.90;;;;;;5043555;28;20291;-76
2021/08/10 01:08:12;;;;;;;3.60;2.78;;;12.20;99.90;;;;;;5043920;28;20191;-76
2021/08/10 01:10:47;;;;;;;3.90;2.88;;;12.20;99.90;;;;;;5045330;28;20197;-76
2021/08/10 01:13:34;;;;;;;3.75;2.95;;;12.30;99.90;;;;;;5043912;28;20208;-77
2021/08/10 01:16:13;;;;;;;3.27;2.80;;;11.90;99.90;;;;;;5049219;28;20192;-76
2021/08/10 01:18:54;;;;;;;2.95;2.75;;;12.00;99.90;;;;;;5045317;28;20959;-76
2021/08/10 01:21:27;;;;;;;3.22;2.80;;;12.00;99.90;;;;;;5045553;28;20206;-76
2021/08/10 01:24:01;;;;;;;3.10;2.90;;;12.20;99.90;;;;;;5043893;28;20190;-76
2021/08/10 01:26:43;;;;;;;3.67;3.37;;;12.20;99.90;;;;;;5038922;28;20195;-77
2021/08/10 01:29:22;;;;;;;4.55;3.28;;;12.00;99.90;;;;;;5040019;28;20431;-77
2021/08/10 01:31:49;;;;;;;3.10;2.80;;;11.80;99.90;;;;;;5039992;28;20212;-77
2021/08/10 01:34:29;;;;;;;4.82;3.45;;;12.10;99.90;;;;;;5039976;28;20867;-76
2021/08/10 01:36:57;;;;;;;3.97;3.20;;;11.70;99.90;;;;;;5044949;28;20186;-77
2021/08/10 01:39:26;;;;;;;3.67;3.20;;;11.80;99.90;;;;;;5045296;28;20707;-76
2021/08/10 01:41:53;;;;;;;4.50;2.85;;;11.70;99.90;;;;;;5045283;28;20190;-76
2021/08/10 01:44:25;;;;;;;3.85;3.15;;;11.90;99.90;;;;;;5047264;28;20639;-76
2021/08/10 01:46:52;;;;;;;3.20;3.00;;;11.90;99.90;;;;;;5045061;28;20202;-76
2021/08/10 01:49:18;;;;;;;4.10;3.80;;;11.70;99.90;;;;;;5045003;28;20674;-76
2021/08/10 01:51:44;;;;;;;3.03;2.80;;;11.60;99.90;;;;;;5043427;28;20468;-76
2021/08/10 01:54:12;;;;;;;3.47;3.17;;;11.90;99.90;;;;;;5041485;28;20433;-76
2021/08/10 01:56:38;;;;;;;3.63;3.13;;;11.80;99.90;;;;;;5043239;28;20937;-76
2021/08/10 01:59:05;;;;;;;3.90;3.00;;;12.00;99.90;;;;;;5045076;28;20472;-76
2021/08/10 02:01:31;;;;;;;2.85;2.65;;;11.90;99.90;;;;;;5021376;28;20491;-76
2021/08/10 02:03:58;;;;;;;4.55;3.67;;;11.70;99.90;;;;;;5021906;28;20282;-76
2021/08/10 02:06:25;;;;;;;3.33;3.03;;;11.70;99.90;;;;;;5039919;28;20652;-76
2021/08/10 02:08:51;;;;;;;4.55;3.35;;;11.80;99.90;;;;;;5046620;28;20710;-76
2021/08/10 02:11:18;;;;;;;4.03;3.60;;;11.70;99.90;;;;;;5044414;28;20220;-76
2021/08/10 02:13:45;;;;;;;5.75;3.20;;;11.80;99.90;;;;;;5048478;28;20189;-76
2021/08/10 02:16:11;;;;;;;5.70;3.42;;;11.70;99.90;;;;;;5044733;28;20224;-76
2021/08/10 02:18:38;;;;;;;4.18;3.60;;;11.60;99.90;;;;;;5043264;28;20277;-76
2021/08/10 02:21:09;;;;;;;4.30;3.70;;;12.10;99.90;;;;;;5042684;28;20200;-76
2021/08/10 02:23:35;;;;;;;3.60;3.30;;;11.80;99.90;;;;;;5047516;28;20481;-76
2021/08/10 02:26:02;;;;;;;3.63;3.27;;;11.60;99.90;;;;;;5047453;28;20210;-75
2021/08/10 02:28:28;;;;;;;3.67;3.22;;;11.60;99.90;;;;;;5046266;28;20873;-76
2021/08/10 02:30:58;;;;;;;3.00;2.80;;;12.00;99.90;;;;;;5042066;28;20682;-75
2021/08/10 02:33:26;;;;;;;2.92;2.72;;;11.60;99.90;;;;;;5049591;28;20213;-76
2021/08/10 02:35:55;;;;;;;5.03;2.88;;;11.60;99.90;;;;;;5050147;28;20679;-75
2021/08/10 02:38:22;;;;;;;4.28;2.80;;;11.50;99.90;;;;;;5050732;28;20268;-75
2021/08/10 02:40:50;;;;;;;3.40;3.10;;;11.70;99.90;;;;;;5048891;28;20188;-75
2021/08/10 02:43:17;;;;;;;3.50;3.13;;;11.60;99.90;;;;;;5047693;28;20217;-75
2021/08/10 02:45:44;;;;;;;3.50;3.20;;;11.50;99.90;;;;;;5044927;28;20224;-75
2021/08/10 02:48:10;;;;;;;4.15;3.25;;;11.40;99.90;;;;;;5045805;28;20213;-75
2021/08/10 02:50:35;;;;;;;3.67;3.00;;;11.30;99.90;;;;;;5047904;28;20559;-75
2021/08/10 02:53:04;;;;;;;3.53;3.23;;;11.70;99.90;;;;;;5047502;28;20439;-75
2021/08/10 02:55:32;;;;;;;3.20;2.90;;;11.50;99.90;;;;;;5045719;28;20186;-75
2021/08/10 02:58:21;;;;;;;4.25;3.85;;;11.50;99.90;;;;;;5045016;28;20194;-75
2021/08/10 03:01:04;;;;;;;4.10;3.00;;;11.60;99.90;;;;;;5047019;28;20184;-76
2021/08/10 03:03:31;;;;;;;3.42;2.95;;;11.80;99.90;;;;;;5046824;28;20222;-75
2021/08/10 03:05:59;;;;;;;3.28;2.95;;;11.50;99.90;;;;;;5046331;28;20194;-75
2021/08/10 03:08:28;;;;;;;4.18;3.50;;;11.40;99.90;;;;;;5047115;28;20273;-75
2021/08/10 03:10:56;;;;;;;3.80;3.45;;;11.50;99.90;;;;;;5048244;28;20203;-75
2021/08/10 03:13:24;;;;;;;3.50;3.20;;;11.30;99.90;;;;;;5046867;28;20651;-76
2021/08/10 03:15:54;;;;;;;3.75;3.45;;;11.60;99.90;;;;;;5046470;28;20277;-75
2021/08/10 03:18:26;;;;;;;3.67;3.28;;;11.70;99.90;;;;;;5045225;28;20189;-75
2021/08/10 03:20:56;;;;;;;3.03;2.72;;;11.50;99.90;;;;;;5046614;28;20219;-75
2021/08/10 03:23:24;;;;;;;4.25;3.95;;;11.40;99.90;;;;;;5043782;28;20197;-75
2021/08/10 03:25:50;;;;;;;3.58;3.20;;;11.40;99.90;;;;;;5043440;28;20330;-76
2021/08/10 03:28:18;;;;;;;3.50;3.30;;;11.60;99.90;;;;;;5042983;28;20202;-76
2021/08/10 03:30:45;;;;;;;4.00;3.60;;;11.60;99.90;;;;;;5049895;28;20291;-76
2021/08/10 03:33:11;;;;;;;3.83;3.53;;;11.50;99.90;;;;;;5047978;28;20329;-75
2021/08/10 03:35:38;;;;;;;3.63;3.33;;;11.60;99.90;;;;;;5048082;28;20636;-76
2021/08/10 03:38:04;;;;;;;3.67;3.38;;;11.40;99.90;;;;;;5044987;28;20599;-76
2021/08/10 03:40:30;;;;;;;3.70;3.40;;;11.40;99.90;;;;;;5044910;28;20182;-75
2021/08/10 03:42:56;;;;;;;3.27;2.97;;;11.50;99.90;;;;;;5047808;28;20187;-76
2021/08/10 03:45:25;;;;;;;3.70;3.40;;;11.30;99.90;;;;;;5044289;28;20212;-76
2021/08/10 03:47:51;;;;;;;3.90;3.50;;;11.10;99.90;;;;;;5046115;28;20235;-76
2021/08/10 03:50:19;;;;;;;3.70;3.30;;;11.50;99.90;;;;;;5042523;28;20532;-77
2021/08/10 03:52:48;;;;;;;3.35;3.05;;;11.30;99.90;;;;;;5044538;28;20287;-77
2021/08/10 03:55:14;;;;;;;3.55;3.35;;;11.30;99.90;;;;;;5044134;28;20207;-76
2021/08/10 03:57:40;;;;;;;4.63;4.23;;;11.40;99.90;;;;;;5047405;28;20182;-77
2021/08/10 04:00:06;;;;;;;7.83;4.00;;;11.40;99.90;;;;;;5042707;28;20188;-77
2021/08/10 04:02:34;;;;;;;4.18;3.88;;;11.50;99.90;;;;;;5047609;28;20484;-77
2021/08/10 04:05:00;;;;;;;5.05;3.28;;;11.50;99.90;;;;;;5046617;28;20460;-77
2021/08/10 04:07:27;;;;;;;3.90;3.47;;;11.40;99.90;;;;;;5044315;28;20187;-75
2021/08/10 04:09:54;;;;;;;5.18;3.78;;;11.40;99.90;;;;;;5045309;28;20203;-77
2021/08/10 04:12:20;;;;;;;3.78;3.42;;;11.60;99.90;;;;;;5041938;28;20499;-77
2021/08/10 04:14:46;;;;;;;4.30;3.90;;;11.40;99.90;;;;;;5040888;28;20261;-75
2021/08/10 04:17:13;;;;;;;4.13;3.83;;;11.50;99.90;;;;;;5045743;28;20306;-75
2021/08/10 04:19:47;;;;;;;4.63;4.13;;;11.60;99.90;;;;;;5045401;28;20433;-75
2021/08/10 04:22:17;;;;;;;4.43;3.90;;;11.70;99.90;;;;;;5043898;28;20193;-75
2021/08/10 04:24:44;;;;;;;4.10;3.70;;;11.60;99.90;;;;;;5043649;28;20188;-74
2021/08/10 04:27:11;;;;;;;6.93;3.65;;;11.80;99.90;;;;;;5045369;28;20276;-75
2021/08/10 04:29:37;;;;;;;3.70;3.40;;;12.10;99.90;;;;;;5044862;28;20186;-75
2021/08/10 04:32:02;;;;;;;5.17;3.57;;;12.00;99.90;;;;;;5043358;28;20304;-75
2021/08/10 04:34:28;;;;;;;4.73;4.00;;;12.60;99.90;;;;;;5044710;28;20679;-77
2021/08/10 04:36:53;;;;;;;5.00;4.60;;;12.30;99.90;;;;;;5045276;28;20182;-77
2021/08/10 04:39:19;;;;;;;4.83;4.33;;;12.70;99.90;;;;;;5043758;28;20194;-76
2021/08/10 04:41:44;;;;;;;5.33;4.07;;;12.80;99.90;;;;;;5043369;28;20193;-76
2021/08/10 04:44:11;;;;;;;4.60;4.20;;;12.70;99.90;;;;;;5041762;28;20186;-76
2021/08/10 04:46:37;;;;;;;4.40;4.00;;;12.70;99.90;;;;;;5043004;28;20316;-76
2021/08/10 04:49:05;;;;;;;3.97;3.53;;;12.90;99.90;;;;;;5041753;28;20523;-76
2021/08/10 04:51:31;;;;;;;4.43;4.03;;;12.70;99.90;;;;;;5044721;28;20298;-76
2021/08/10 04:53:57;;;;;;;4.43;4.03;;;13.00;99.90;;;;;;5041169;28;20506;-76
2021/08/10 04:56:22;;;;;;;4.07;3.67;;;13.20;99.90;;;;;;5045358;28;21004;-76
2021/08/10 04:58:48;;;;;;;3.77;3.40;;;13.10;99.90;;;;;;5046618;28;20274;-77
2021/08/10 05:01:13;;;;;;;3.83;3.53;;;13.40;99.90;;;;;;5045033;28;20186;-76
2021/08/10 05:03:40;;;;;;;4.43;3.83;;;13.70;99.90;;;;;;5042694;28;20550;-77
2021/08/10 05:06:06;;;;;;;3.77;3.47;;;13.20;99.90;;;;;;5041808;28;20175;-77
2021/08/10 05:08:32;;;;;;;4.10;3.77;;;13.70;99.90;;;;;;5041759;28;20507;-75
2021/08/10 05:10:58;;;;;;;3.40;3.10;;;13.70;99.90;;;;;;5040711;28;20212;-74
2021/08/10 05:13:24;;;;;;;2.83;2.53;;;13.80;99.90;;;;;;5039628;28;20179;-75
2021/08/10 05:15:50;;;;;;;3.57;3.27;;;13.70;99.90;;;;;;5044709;28;20617;-76
2021/08/10 05:18:15;;;;;;;3.17;2.87;;;13.90;99.90;;;;;;5044417;28;20189;-75
2021/08/10 05:20:41;;;;;;;3.70;3.40;;;14.00;99.90;;;;;;5048076;28;20185;-75
2021/08/10 05:23:07;;;;;;;3.43;3.13;;;14.00;99.90;;;;;;5042522;28;20182;-75
2021/08/10 05:25:32;;;;;;;3.23;3.03;;;14.00;99.90;;;;;;5047049;28;20645;-75
2021/08/10 05:27:58;;;;;;;3.93;3.53;;;14.40;99.90;;;;;;5046392;28;20668;-75
2021/08/10 05:30:23;;;;;;;3.67;3.37;;;14.30;99.90;;;;;;5043004;28;20655;-75
2021/08/10 05:32:49;;;;;;;3.50;3.20;;;14.50;99.90;;;;;;5042374;28;20634;-75
2021/08/10 05:35:14;;;;;;;3.53;3.23;;;14.50;99.90;;;;;;5043606;28;20187;-76
2021/08/10 05:37:40;;;;;;;3.73;3.43;;;14.40;99.90;;;;;;5045144;28;20234;-76
2021/08/10 05:40:06;;;;;;;3.70;3.40;;;14.50;99.90;;;;;;5040748;28;20273;-75
2021/08/10 05:42:31;;;;;;;3.57;3.27;;;14.60;99.90;;;;;;5041737;28;20218;-75
2021/08/10 05:44:57;;;;;;;5.00;3.53;;;14.60;99.90;;;;;;5042776;28;20471;-75
2021/08/10 05:47:22;;;;;;;5.43;3.70;;;15.30;99.90;;;;;;5051246;28;20195;-75
2021/08/10 05:49:48;;;;;;;3.77;3.47;;;15.10;99.90;;;;;;5052425;28;20205;-75
2021/08/10 05:52:15;;;;;;;3.97;3.30;;;15.30;99.90;;;;;;5048508;28;20673;-76
2021/08/10 05:54:40;;;;;;;4.23;3.27;;;15.30;99.90;;;;;;5048545;28;20194;-75
2021/08/10 05:57:06;;;;;;;3.37;3.10;;;15.80;99.90;;;;;;5046505;28;20429;-76
2021/08/10 05:59:32;;;;;;;3.60;3.30;;;15.60;99.90;;;;;;5046934;28;20233;-73
2021/08/10 06:01:58;;;;;;;3.70;3.40;;;15.80;99.90;;;;;;5046059;28;20197;-76
2021/08/10 06:04:23;;;;;;;3.50;3.20;;;15.90;99.90;;;;;;5042424;28;20312;-73
2021/08/10 06:06:49;;;;;;;3.80;3.50;;;15.80;99.90;;;;;;5048525;28;20966;-73
2021/08/10 06:09:14;;;;;;;3.73;3.43;;;16.00;99.90;;;;;;5046415;28;20652;-73
2021/08/10 06:11:40;;;;;;;3.90;3.60;;;16.30;99.90;;;;;;5044705;28;20218;-74
2021/08/10 06:14:06;;;;;;;3.60;3.30;;;16.60;99.90;;;;;;5048280;28;20194;-72
2021/08/10 06:16:33;;;;;;;3.10;2.90;;;16.90;99.90;;;;;;5050237;28;20561;-73
2021/08/10 06:18:59;;;;;;;3.87;3.57;;;16.70;99.90;;;;;;5048242;28;20198;-72
2021/08/10 06:21:25;;;;;;;4.17;3.00;;;16.60;99.90;;;;;;5048587;28;20440;-73
2021/08/10 06:23:50;;;;;;;3.20;3.00;;;16.90;99.90;;;;;;5042811;28;20501;-74
2021/08/10 06:26:16;;;;;;;3.40;3.03;;;17.30;99.90;;;;;;5045936;28;20192;-74
2021/08/10 06:28:41;;;;;;;3.80;3.50;;;17.30;99.90;;;;;;5047992;28;20214;-74
2021/08/10 06:31:09;;;;;;;3.40;3.20;;;17.20;99.90;;;;;;5046228;28;20233;-74
2021/08/10 06:33:35;;;;;;;3.63;3.33;;;17.50;99.90;;;;;;5036591;28;20281;-74
2021/08/10 06:36:00;;;;;;;3.20;2.90;;;17.90;99.90;;;;;;5046157;28;20928;-74
2021/08/10 06:38:26;;;;;;;3.03;2.83;;;17.80;99.90;;;;;;5047378;28;20537;-74
2021/08/10 06:40:51;;;;;;;4.10;3.30;;;18.00;99.90;;;;;;5049416;28;20183;-74
2021/08/10 06:43:17;;;;;;;3.80;3.50;;;18.30;99.90;;;;;;5047519;28;20191;-74
2021/08/10 06:45:43;;;;;;;3.50;3.20;;;18.50;99.90;;;;;;5047745;28;20271;-73
2021/08/10 06:48:08;;;;;;;3.40;3.10;;;18.60;99.90;;;;;;5045806;28;20678;-75
2021/08/10 06:50:34;;;;;;;3.53;3.00;;;18.90;99.90;;;;;;5047521;28;20193;-73
2021/08/10 06:52:59;;;;;;;3.27;2.60;;;19.10;99.90;;;;;;5045833;28;20718;-75
2021/08/10 06:55:25;;;;;;;3.03;2.77;;;19.20;99.90;;;;;;5047364;28;20651;-73
2021/08/10 06:57:51;;;;;;;3.47;3.27;;;19.30;99.90;;;;;;5047292;28;20219;-73
2021/08/10 07:00:16;;;;;;;3.00;2.80;;;19.60;99.90;;;;;;5043413;28;20718;-73
2021/08/10 07:02:42;;;;;;;3.40;3.10;;;19.40;99.90;;;;;;5043801;28;20300;-72
2021/08/10 07:05:09;;;;;;;3.60;3.30;;;19.70;99.90;;;;;;5047167;28;20602;-76
2021/08/10 07:07:34;;;;;;;3.43;2.90;;;20.30;99.90;;;;;;5047294;28;20887;-75
2021/08/10 07:10:01;;;;;;;3.07;2.87;;;20.60;99.90;;;;;;5039524;28;20447;-75
2021/08/10 07:12:26;;;;;;;3.20;3.00;;;20.80;99.90;;;;;;5041975;28;20533;-72
2021/08/10 07:14:52;;;;;;;3.93;3.13;;;21.30;97.30;;;;;;5046133;28;20436;-73
2021/08/10 07:17:17;;;;;;;3.90;3.50;;;21.60;94.20;;;;;;5048213;28;20652;-73
2021/08/10 07:19:43;;;;;;;2.97;2.77;;;22.10;93.00;;;;;;5041915;28;20193;-74
2021/08/10 07:22:08;;;;;;;3.37;3.03;;;22.10;92.50;;;;;;5042427;28;20202;-73
2021/08/10 07:24:34;;;;;;;3.30;3.00;;;22.40;91.40;;;;;;5046554;28;20245;-73
2021/08/10 07:26:59;;;;;;;3.63;3.33;;;22.50;88.50;;;;;;5046225;28;20195;-73
2021/08/10 07:29:25;;;;;;;3.03;2.73;;;22.80;86.70;;;;;;5046701;28;20688;-73
2021/08/10 07:31:50;;;;;;;3.03;2.83;;;22.90;85.80;;;;;;5048486;28;20215;-73
2021/08/10 07:34:16;;;;;;;3.40;3.20;;;23.10;81.80;;;;;;5044951;28;20210;-73
2021/08/10 07:36:42;;;;;;;3.27;2.97;;;23.40;79.80;;;;;;5045688;28;20200;-73
2021/08/10 07:39:07;;;;;;;3.70;2.47;;;23.40;79.00;;;;;;5046123;28;20230;-73
2021/08/10 07:41:33;;;;;;;3.03;2.83;;;23.30;75.10;;;;;;5042892;28;20174;-72
2021/08/10 07:43:58;;;;;;;3.73;3.43;;;23.50;73.70;;;;;;5046005;28;20222;-73
2021/08/10 07:46:24;;;;;;;3.00;2.80;;;23.70;72.60;;;;;;5045914;28;20199;-73
2021/08/10 07:48:50;;;;;;;2.90;2.70;;;23.70;72.20;;;;;;5042523;28;20185;-75
2021/08/10 07:51:17;;;;;;;3.87;3.50;;;23.80;72.80;;;;;;5043763;28;20474;-76
2021/08/10 07:53:43;;;;;;;3.30;3.10;;;23.90;71.10;;;;;;5045396;28;20421;-73
2021/08/10 07:56:09;;;;;;;3.10;2.80;;;24.40;68.10;;;;;;5041132;28;20769;-73
2021/08/10 07:58:34;;;;;;;3.13;2.93;;;24.00;67.00;;;;;;5047398;28;20537;-73
2021/08/10 08:01:00;;;;;;;3.47;3.17;;;24.20;66.70;;;;;;5045030;28;20203;-73
2021/08/10 08:03:26;;;;;;;4.10;3.40;;;24.20;67.10;;;;;;5045430;28;20626;-72
2021/08/10 08:05:51;;;;;;;3.53;3.23;;;24.50;65.40;;;;;;5044337;28;21006;-73
2021/08/10 08:08:17;;;;;;;3.10;2.80;;;24.40;64.30;;;;;;5041346;28;20593;-73
2021/08/10 08:10:42;;;;;;;3.10;2.90;;;24.30;64.20;;;;;;5039016;28;20540;-73
2021/08/10 08:13:08;;;;;;;3.40;3.20;;;24.40;65.20;;;;;;5042999;28;20194;-73
2021/08/10 08:15:34;;;;;;;3.47;3.20;;;24.30;63.10;;;;;;5045711;28;20181;-73
2021/08/10 08:18:00;;;;;;;3.40;3.20;;;24.40;61.50;;;;;;5044972;28;20186;-73
2021/08/10 08:20:26;;;;;;;3.20;2.90;;;24.50;62.00;;;;;;5043266;28;20441;-73
2021/08/10 08:22:52;;;;;;;3.83;3.43;;;24.30;61.60;;;;;;5047678;28;20491;-72
2021/08/10 08:25:18;;;;;;;4.23;3.53;;;24.30;62.40;;;;;;5043511;28;20190;-75
2021/08/10 08:27:43;;;;;;;3.40;3.10;;;24.30;62.00;;;;;;5043704;28;20475;-73
2021/08/10 08:30:09;;;;;;;3.37;3.10;;;24.90;62.70;;;;;;5041545;28;20253;-73
2021/08/10 08:32:35;;;;;;;3.13;2.83;;;25.10;60.80;;;;;;5045640;28;20312;-73
2021/08/10 08:35:00;;;;;;;3.40;3.10;;;25.00;59.10;;;;;;5044093;28;21010;-73
2021/08/10 08:37:26;;;;;;;3.30;3.00;;;24.80;59.20;;;;;;5044803;28;20226;-71
2021/08/10 08:39:52;;;;;;;3.20;2.90;;;25.10;58.90;;;;;;5043121;28;20187;-73
2021/08/10 08:42:18;;;;;;;3.13;2.63;;;25.20;58.90;;;;;;5045441;28;20185;-73
2021/08/10 08:44:43;;;;;;;2.80;2.60;;;25.30;58.80;;;;;;5045007;28;20193;-73
2021/08/10 08:47:10;;;;;;;2.80;2.60;;;25.70;58.60;;;;;;5046951;28;20447;-73
2021/08/10 08:49:38;;;;;;;2.47;2.23;;;25.60;58.00;;;;;;5046612;28;20188;-73
2021/08/10 08:52:09;;;;;;;3.40;3.10;;;26.30;57.00;;;;;;5044807;28;20483;-73
2021/08/10 08:54:37;;;;;;;2.70;2.50;;;27.00;55.50;;;;;;5044814;28;20442;-73
2021/08/10 08:57:03;;;;;;;3.00;2.80;;;27.60;54.00;;;;;;5044766;28;20465;-73
2021/08/10 08:59:29;;;;;;;2.27;2.17;;;28.40;52.70;;;;;;5045148;28;20532;-73
2021/08/10 09:01:55;;;;;;;3.00;2.70;;;28.90;49.30;;;;;;5044581;28;20179;-72
2021/08/10 09:04:21;;;;;;;2.50;2.30;;;29.30;48.80;;;;;;5043350;28;20434;-74
2021/08/10 09:06:47;;;;;;;2.70;2.50;;;29.50;47.00;;;;;;5044609;28;20176;-74
2021/08/10 09:09:26;;;;;;;3.47;2.90;;;29.50;46.30;;;;;;5039725;28;20184;-73
2021/08/10 09:11:54;;;;;;;3.37;2.83;;;29.60;46.90;;;;;;5044439;28;20472;-73
2021/08/10 09:14:21;;;;;;;2.83;2.63;;;29.80;46.00;;;;;;5046393;28;20431;-74
2021/08/10 09:17:10;;;;;;;2.27;2.07;;;29.90;45.50;;;;;;5048638;28;20518;-74
2021/08/10 09:19:49;;;;;;;3.33;2.37;;;30.10;44.40;;;;;;5035271;28;20428;-74
2021/08/10 09:22:26;;;;;;;2.57;2.37;;;30.20;44.20;;;;;;5046810;28;20431;-73
2021/08/10 09:24:59;;;;;;;2.33;2.23;;;30.10;43.00;;;;;;5050656;28;20609;-74
2021/08/10 09:27:38;;;;;;;3.33;3.13;;;29.80;43.00;;;;;;5046778;28;20434;-75
2021/08/10 09:30:12;;;;;;;3.20;3.00;;;29.70;43.20;;;;;;5047906;28;20431;-73
2021/08/10 09:32:59;;;;;;;2.53;2.40;;;29.80;44.40;;;;;;5048487;28;20540;-74
2021/08/10 09:35:33;;;;;;;2.80;2.60;;;30.30;44.00;;;;;;5043322;28;20799;-74
2021/08/10 09:38:04;;;;;;;2.60;2.40;;;30.80;42.30;;;;;;5046708;28;20475;-73
2021/08/10 09:40:38;;;;;;;2.20;2.10;;;31.20;41.20;;;;;;5044929;28;20803;-74
2021/08/10 09:43:33;;;;;;;2.77;2.30;;;31.30;41.00;;;;;;5044397;28;20420;-74
2021/08/10 09:46:19;;;;;;;3.10;2.90;;;31.40;40.60;;;;;;5052122;28;20598;-74
2021/08/10 09:48:57;;;;;;;2.43;2.27;;;31.50;41.40;;;;;;5048071;28;20925;-74
2021/08/10 09:51:25;;;;;;;2.37;2.20;;;31.70;40.20;;;;;;5043299;28;21099;-74
2021/08/10 09:54:01;;;;;;;3.03;2.80;;;32.10;40.70;;;;;;5042811;28;20424;-74
2021/08/10 09:56:53;;;;;;;2.13;2.03;;;32.50;40.00;;;;;;5048454;28;20459;-75
2021/08/10 09:59:22;;;;;;;2.60;2.40;;;32.70;38.80;;;;;;5039248;28;20436;-74
2021/08/10 10:01:51;;;;;;;2.20;2.00;;;32.90;38.10;;;;;;5045012;28;20866;-74
2021/08/10 10:04:21;;;;;;;2.63;2.43;;;32.90;37.40;;;;;;5042444;28;20799;-74
2021/08/10 10:06:49;;;;;;;2.60;2.40;;;32.70;37.10;;;;;;5042696;28;20429;-74
2021/08/10 10:09:15;;;;;;;2.17;2.07;;;32.50;37.10;;;;;;5051392;28;20425;-75
2021/08/10 10:11:44;;;;;;;2.70;2.50;;;32.50;36.60;;;;;;5048005;28;20465;-74
2021/08/10 10:14:11;;;;;;;2.30;2.10;;;32.20;35.70;;;;;;5047327;28;20767;-74
2021/08/10 10:16:40;;;;;;;2.43;2.23;;;32.00;36.90;;;;;;5050034;28;20429;-73
2021/08/10 10:19:10;;;;;;;3.13;2.60;;;31.80;37.60;;;;;;5046202;28;20431;-74
2021/08/10 10:21:38;;;;;;;2.63;2.43;;;31.80;37.90;;;;;;5047938;28;20528;-74
2021/08/10 10:24:04;;;;;;;2.80;2.60;;;31.70;36.80;;;;;;5044200;28;20429;-74
2021/08/10 10:26:31;;;;;;;2.20;2.00;;;31.80;38.00;;;;;;5044171;28;20793;-74
2021/08/10 10:28:58;;;;;;;3.17;2.87;;;32.10;38.30;;;;;;5044352;28;20440;-75
2021/08/10 10:31:24;;;;;;;2.60;2.40;;;32.30;38.20;;;;;;5048740;28;20504;-74
2021/08/10 10:33:51;;;;;;;2.73;2.53;;;32.70;37.10;;;;;;5047415;28;20491;-75
2021/08/10 10:36:17;;;;;;;2.87;2.60;;;33.00;37.50;;;;;;5047172;28;20198;-74
2021/08/10 10:38:44;;;;;;;2.67;2.47;;;33.20;36.10;;;;;;5047572;28;20609;-74
2021/08/10 10:41:11;;;;;;;3.73;3.40;;;33.50;35.30;;;;;;5048917;28;20437;-75
2021/08/10 10:43:38;;;;;;;4.30;2.60;;;33.70;35.40;;;;;;5045256;28;20429;-75
2021/08/10 10:46:27;;;;;;;2.90;2.53;;;34.20;34.60;;;;;;5047222;28;20922;-74
2021/08/10 10:48:53;;;;;;;4.37;2.33;;;34.40;34.60;;;;;;5047472;28;20456;-74
2021/08/10 10:51:24;;;;;;;2.43;2.23;;;34.70;34.20;;;;;;5045367;28;20961;-74
2021/08/10 10:53:50;;;;;;;3.03;2.83;;;35.00;33.80;;;;;;5046852;28;20177;-75
2021/08/10 10:56:28;;;;;;;2.30;2.10;;;35.30;33.00;;;;;;5041495;28;20569;-74
2021/08/10 10:58:55;;;;;;;2.67;2.47;;;35.50;33.10;;;;;;5035965;28;20193;-74
2021/08/10 11:01:30;;;;;;;2.53;2.33;;;35.60;32.60;;;;;;5047303;28;20536;-75
2021/08/10 11:04:06;;;;;;;2.53;2.33;;;35.30;31.00;;;;;;5048732;28;20437;-74
2021/08/10 11:06:34;;;;;;;2.80;2.60;;;34.50;31.90;;;;;;5047077;28;20430;-74
2021/08/10 11:09:02;;;;;;;2.90;2.70;;;34.10;33.30;;;;;;5046827;28;20851;-74
2021/08/10 11:11:53;;;;;;;2.37;2.23;;;34.00;34.30;;;;;;5046801;28;20606;-74
2021/08/10 11:14:37;;;;;;;2.80;2.60;;;34.20;35.00;;;;;;5040162;28;20501;-74
2021/08/10 11:17:11;;;;;;;2.70;2.40;;;34.60;34.80;;;;;;5046559;28;20823;-74
2021/08/10 11:19:40;;;;;;;4.40;2.47;;;34.90;33.20;;;;;;5046444;28;20414;-74
2021/08/10 11:22:14;;;;;;;2.57;2.37;;;35.00;31.30;;;;;;5044902;28;20970;-75
2021/08/10 11:24:43;;;;;;;2.40;2.20;;;35.40;30.70;;;;;;5041391;28;20445;-74
2021/08/10 11:27:28;;;;;;;2.67;2.47;;;35.60;29.80;;;;;;5043009;28;20434;-75
2021/08/10 11:29:53;;;;;;;3.10;2.80;;;35.70;30.00;;;;;;5046532;28;20442;-74
2021/08/10 11:32:44;;;;;;;2.70;2.50;;;35.70;30.50;;;;;;5046330;28;20549;-74
2021/08/10 11:35:33;;;;;;;3.80;2.67;;;35.90;30.00;;;;;;5045174;28;20699;-76
2021/08/10 11:38:13;;;;;;;3.70;2.67;;;36.00;30.30;;;;;;5039734;28;20541;-74
2021/08/10 11:40:59;;;;;;;3.13;2.70;;;35.80;29.20;;;;;;5039955;28;20445;-74
2021/08/10 11:43:39;;;;;;;2.47;2.27;;;35.50;29.40;;;;;;5043461;28;20419;-75
2021/08/10 11:46:06;;;;;;;3.40;3.10;;;35.40;29.50;;;;;;5044253;28;20474;-75
2021/08/10 11:48:55;;;;;;;2.60;2.40;;;35.80;30.70;;;;;;5036657;28;20440;-74
2021/08/10 11:51:34;;;;;;;2.47;2.27;;;36.90;30.20;;;;;;5045810;28;20875;-75
2021/08/10 11:54:18;;;;;;;3.77;3.57;;;37.70;27.50;;;;;;5046384;28;20524;-75
2021/08/10 11:57:02;;;;;;;2.37;2.27;;;37.90;26.80;;;;;;5035616;28;20534;-75
2021/08/10 11:59:28;;;;;;;2.70;2.50;;;38.40;27.90;;;;;;5047573;28;20437;-74
2021/08/10 12:01:59;;;;;;;3.80;2.80;;;39.70;27.50;;;;;;5046036;28;20444;-74
2021/08/10 12:04:27;;;;;;;2.47;2.37;;;40.50;25.70;;;;;;5045628;28;20192;-74
2021/08/10 12:06:55;;;;;;;3.23;2.07;;;41.30;25.50;;;;;;5044563;28;20446;-75
2021/08/10 12:09:34;;;;;;;2.20;2.10;;;42.40;25.20;;;;;;5043848;28;20433;-75
2021/08/10 12:12:02;;;;;;;2.60;2.40;;;43.60;24.10;;;;;;5045677;28;20468;-75
2021/08/10 12:14:30;;;;;;;2.50;2.30;;;44.70;23.50;;;;;;5042347;28;20520;-75
2021/08/10 12:17:03;;;;;;;2.30;2.20;;;45.90;22.20;;;;;;5042505;28;20843;-76
2021/08/10 12:19:38;;;;;;;2.87;2.77;;;45.80;21.10;;;;;;5041926;28;20440;-76
2021/08/10 12:22:07;;;;;;;2.43;2.30;;;45.10;21.10;;;;;;5041612;28;20830;-72
2021/08/10 12:24:38;;;;;;;2.60;2.40;;;42.50;22.80;;;;;;5046997;28;20433;-74
2021/08/10 12:27:05;;;;;;;2.80;2.60;;;41.40;24.30;;;;;;5040563;28;20433;-75
2021/08/10 12:29:48;;;;;;;2.30;2.20;;;40.00;25.60;;;;;;5047028;28;20520;-72
2021/08/10 12:32:23;;;;;;;2.67;2.47;;;38.60;27.20;;;;;;5047410;28;20433;-74
2021/08/10 12:34:48;;;;;;;2.67;2.47;;;37.70;29.20;;;;;;5045547;28;20436;-73
2021/08/10 12:37:14;;;;;;;3.00;2.70;;;37.10;28.90;;;;;;5041726;28;20471;-74
2021/08/10 12:39:44;;;;;;;2.77;2.57;;;36.50;30.10;;;;;;5041256;28;20565;-74
2021/08/10 12:42:11;;;;;;;2.80;2.60;;;36.00;30.90;;;;;;5045564;28;20506;-73
2021/08/10 12:44:37;;;;;;;3.07;2.47;;;35.30;32.50;;;;;;5045086;28;20588;-73
2021/08/10 12:47:06;;;;;;;3.47;3.17;;;35.10;33.00;;;;;;5043887;28;20961;-73
2021/08/10 12:49:36;;;;;;;4.20;2.57;;;34.80;32.80;;;;;;5042088;28;20428;-74
2021/08/10 12:52:13;;;;;;;2.93;2.67;;;34.60;33.50;;;;;;5045263;28;20429;-73
2021/08/10 12:54:51;;;;;;;2.57;2.37;;;34.40;34.40;;;;;;5044829;28;20447;-74
2021/08/10 12:57:20;;;;;;;3.50;2.80;;;34.90;34.80;;;;;;5045787;28;20514;-74